• Join FlightAware (Why Join?)
  • Login
  • US Flag 
08:02PM EDT


 

Airport Tracker/Info


-or-


 

Live Flight TrackerFlight Track Log ✈ C-GDKC ✈ 25-May-2013 ✈ KTYS - KSKY

Flight Track Log - Related Links

Times and Time Zones

All times are in EDT time to prevent confusion due to time zone crossing. See the C-GDKC flight status page for this flight to view local times or setup timezone preferences in your user account.

Time Position Orientation Groundspeed Altitude Reporting Facility
EDT Latitude Longitude Course Direction KTS MPH feet Rate Location/Type
08:36AM 35.8228 -83.9847 349° North 74 85 1,700  Level Indianapolis Center
08:38AM 35.8444 -83.9897 349° North 76 87 2,200 420 Climbing Indianapolis Center
08:39AM 35.8653 -83.9828 15° North 77 89 2,600 540 Climbing Indianapolis Center
08:40AM 35.8853 -83.9672 32° Northeast 74 85 3,300 480 Climbing Indianapolis Center
08:41AM 35.9025 -83.9564 27° Northeast 71 82 3,700 420 Climbing Indianapolis Center
08:42AM 35.9211 -83.9475 21° North 70 81 4,200 480 Climbing Indianapolis Center
08:43AM 35.9425 -83.9389 18° North 76 87 4,700 480 Climbing Indianapolis Center
08:44AM 35.9625 -83.9311 17° North 76 87 5,200 360 Climbing Indianapolis Center
08:45AM 35.9831 -83.9203 23° Northeast 78 90 5,500 180 Climbing Indianapolis Center
08:46AM 36.0094 -83.9111 16° North 92 106 5,600 60 Climbing Indianapolis Center
08:47AM 36.0408 -83.9025 13° North 108 124 5,700  Climbing Indianapolis Center
08:48AM 36.0678 -83.8889 22° Northeast 107 123 5,700  Level Indianapolis Center
08:49AM 36.0981 -83.8767 18° North 111 128 5,700  Level Indianapolis Center
08:50AM 36.1342 -83.8656 14° North 111 128 5,800  Climbing Indianapolis Center
08:51AM 36.1675 -83.8578 11° North 117 135 5,700 -60 Descending Indianapolis Center
08:52AM 36.1994 -83.8458 17° North 120 138 5,700 -60 Level Indianapolis Center
08:53AM 36.2311 -83.8347 16° North 119 137 5,600 -60 Descending Indianapolis Center
08:54AM 36.2633 -83.8269 11° North 118 136 5,600  Level Indianapolis Center
08:55AM 36.2936 -83.8108 23° Northeast 119 137 5,600  Level Indianapolis Center
08:56AM 36.3250 -83.7986 17° North 118 136 5,600 -60 Level Indianapolis Center
08:57AM 36.3583 -83.7850 18° North 123 142 5,500 -60 Descending Indianapolis Center
08:58AM 36.3914 -83.7722 17° North 123 142 5,500  Level Indianapolis Center
08:59AM 36.4283 -83.7600 15° North 117 135 5,500  Level Indianapolis Center
09:00AM 36.4586 -83.7481 18° North 115 132 5,600  Climbing Indianapolis Center
09:01AM 36.4914 -83.7331 20° North 123 142 5,600 -60 Level Indianapolis Center
09:02AM 36.5225 -83.7150 25° Northeast 124 143 5,500 -60 Descending Indianapolis Center
09:03AM 36.5525 -83.6978 25° Northeast 120 138 5,500  Level Indianapolis Center
09:04AM 36.5856 -83.6819 21° North 123 142 5,500  Level Indianapolis Center
09:05AM 36.6164 -83.6669 21° North 122 140 5,500  Level Indianapolis Center
09:06AM 36.6464 -83.6497 25° Northeast 119 137 5,500  Level Indianapolis Center
09:07AM 36.6817 -83.6294 25° Northeast 118 136 5,500  Level Indianapolis Center
09:08AM 36.7122 -83.6114 25° Northeast 120 138 5,500  Level Indianapolis Center
09:09AM 36.7442 -83.6017 14° North 119 137 5,500  Level Indianapolis Center
09:10AM 36.7758 -83.5892 18° North 120 138 5,500  Level Indianapolis Center
09:11AM 36.8067 -83.5703 26° Northeast 123 142 5,500  Level Indianapolis Center
09:12AM 36.8383 -83.5586 16° North 119 137 5,500  Level Indianapolis Center
09:13AM 36.8706 -83.5467 17° North 121 139 5,600  Climbing Indianapolis Center
09:14AM 36.9014 -83.5294 24° Northeast 121 139 5,600 -120 Level Indianapolis Center
09:15AM 36.9392 -83.5083 24° Northeast 125 144 5,400 -60 Descending Indianapolis Center
09:16AM 36.9722 -83.4897 24° Northeast 128 147 5,500  Climbing Indianapolis Center
09:17AM 37.0042 -83.4747 21° North 124 143 5,500  Level Indianapolis Center
09:18AM 37.0364 -83.4589 21° North 123 142 5,600  Climbing Indianapolis Center
09:19AM 37.0681 -83.4439 21° North 122 140 5,600  Level Indianapolis Center
09:21AM 37.1014 -83.4333 14° North 122 140 5,600 -60 Level Indianapolis Center
09:22AM 37.1342 -83.4153 24° Northeast 126 145 5,500 -120 Descending Indianapolis Center
09:23AM 37.1711 -83.3886 30° Northeast 130 150 5,400 -60 Descending Indianapolis Center
09:24AM 37.2022 -83.3669 29° Northeast 128 147 5,400  Level Indianapolis Center
09:25AM 37.2350 -83.3481 25° Northeast 129 148 5,400  Level Indianapolis Center
09:26AM 37.2664 -83.3292 26° Northeast 127 146 5,500  Climbing Indianapolis Center
09:27AM 37.2981 -83.3086 27° Northeast 126 145 5,400  Descending Indianapolis Center
09:28AM 37.3294 -83.2914 24° Northeast 126 145 5,500  Climbing Indianapolis Center
09:29AM 37.3636 -83.2814 13° North 125 144 5,500  Level Indianapolis Center
09:30AM 37.4031 -83.2644 19° North 127 146 5,500  Level Indianapolis Center
09:31AM 37.4375 -83.2517 16° North 128 147 5,500  Level Indianapolis Center
09:32AM 37.4719 -83.2442 10° North 127 146 5,500  Level Indianapolis Center
09:33AM 37.5042 -83.2269 23° Northeast 126 145 5,500  Level Indianapolis Center
09:34AM 37.5367 -83.2081 25° Northeast 127 146 5,500  Level Indianapolis Center
09:35AM 37.5700 -83.1983 13° North 125 144 5,500  Level Indianapolis Center
09:36AM 37.6042 -83.1844 18° North 125 144 5,500  Level Indianapolis Center
09:37AM 37.6422 -83.1656 21° North 125 144 5,600  Climbing Indianapolis Center
09:38AM 37.6756 -83.1500 20° North 126 145 5,600  Level Indianapolis Center
09:39AM 37.7089 -83.1358 19° North 127 146 5,600  Level Indianapolis Center
09:40AM 37.7431 -83.1261 13° North 126 145 5,600  Level Indianapolis Center
09:41AM 37.7778 -83.1167 12° North 127 146 5,600 -60 Level Indianapolis Center
09:42AM 37.8106 -83.0989 23° Northeast 126 145 5,500 -60 Descending Indianapolis Center
09:43AM 37.8436 -83.0797 25° Northeast 128 147 5,500  Level Indianapolis Center
09:44AM 37.8806 -83.0583 25° Northeast 126 145 5,500 -60 Level Indianapolis Center
09:45AM 37.9119 -83.0375 28° Northeast 127 146 5,400 -60 Descending Indianapolis Center
09:46AM 37.9425 -83.0181 27° Northeast 124 143 5,400  Level Indianapolis Center
09:47AM 37.9728 -83.0006 24° Northeast 120 138 5,400  Level Indianapolis Center
09:48AM 38.0042 -82.9844 22° Northeast 120 138 5,500 120 Climbing Indianapolis Center
09:49AM 38.0336 -82.9767 12° North 110 127 5,700 60 Climbing Indianapolis Center
09:50AM 38.0681 -82.9556 26° Northeast 118 136 5,700 -60 Level Indianapolis Center
09:51AM 38.1011 -82.9353 26° Northeast 130 150 5,600 -60 Descending Indianapolis Center
09:52AM 38.1319 -82.9147 28° Northeast 127 146 5,600  Level Indianapolis Center
09:53AM 38.1647 -82.9042 14° North 123 142 5,700  Climbing Indianapolis Center
09:55AM 38.1964 -82.8981 North 117 135 5,700  Level Indianapolis Center
09:56AM 38.2294 -82.9000 357° North 117 135 5,700 -60 Level Indianapolis Center
09:57AM 38.2689 -82.8878 14° North 123 142 5,600 -180 Descending Indianapolis Center
09:58AM 38.3025 -82.8811 North 124 143 5,400 -60 Descending Indianapolis Center
09:59AM 38.3358 -82.8833 357° North 120 138 5,500 60 Climbing Indianapolis Center
10:00AM 38.3669 -82.8833 360° North 114 131 5,600  Climbing Indianapolis Center
10:01AM 38.3989 -82.8822 North 116 133 5,500 -60 Descending Indianapolis Center
10:02AM 38.4328 -82.8747 10° North 121 139 5,500  Level Indianapolis Center
10:03AM 38.4697 -82.8633 14° North 118 136 5,500  Level Indianapolis Center
10:04AM 38.5028 -82.8572 North 119 137 5,500  Level Indianapolis Center
10:05AM 38.5339 -82.8506 10° North 116 133 5,500  Level Indianapolis Center
10:06AM 38.5656 -82.8408 13° North 116 133 5,500  Level Indianapolis Center
10:07AM 38.5967 -82.8367 North 111 128 5,500  Level Indianapolis Center
10:08AM 38.6278 -82.8328 North 112 129 5,500  Level Indianapolis Center
10:09AM 38.6594 -82.8275 North 113 130 5,500  Level Indianapolis Center
10:10AM 38.6914 -82.8189 12° North 116 133 5,500  Level Indianapolis Center
10:11AM 38.7281 -82.8081 13° North 114 131 5,600  Climbing Indianapolis Center
10:12AM 38.7600 -82.8017 North 115 132 5,600  Level Indianapolis Center
10:13AM 38.7906 -82.7953 North 112 129 5,600 -60 Level Indianapolis Center
10:14AM 38.8236 -82.7939 North 117 135 5,500 -120 Descending Indianapolis Center
10:15AM 38.8558 -82.7933 North 116 133 5,400 -60 Descending Indianapolis Center
10:16AM 38.8872 -82.7978 354° North 113 130 5,400 60 Level Indianapolis Center
10:17AM 38.9172 -82.7961 North 108 124 5,600 60 Climbing Indianapolis Center
10:18AM 38.9547 -82.7925 North 112 129 5,600  Level Indianapolis Center
10:19AM 38.9856 -82.7842 12° North 112 129 5,600 -60 Level Indianapolis Center
10:20AM 39.0172 -82.7842 360° North 114 131 5,500  Descending Indianapolis Center
10:21AM 39.0481 -82.7792 North 111 128 5,600  Climbing Indianapolis Center
10:22AM 39.0806 -82.7692 13° North 117 135 5,500 -60 Descending Indianapolis Center
10:23AM 39.1131 -82.7672 North 118 136 5,500  Level Indianapolis Center
10:24AM 39.1458 -82.7608 North 118 136 5,500  Level Indianapolis Center
10:25AM 39.1789 -82.7528 11° North 115 132 5,500  Level Indianapolis Center
10:26AM 39.2114 -82.7433 13° North 118 136 5,600  Climbing Indianapolis Center
10:27AM 39.2436 -82.7372 North 116 133 5,600  Level Indianapolis Center
10:28AM 39.2733 -82.7364 North 117 135 5,600  Level Indianapolis Center
10:29AM 39.2825 -82.7347 North 118 136 5,600  Level Indianapolis Center
10:29AM 39.3000 -82.7447 336° Northwest 120 138 5,600  Level Indianapolis Center
10:30AM 39.3125 -82.7519 336° Northwest 119 137 5,600 60 Level Indianapolis Center
10:30AM 39.3300 -82.7642 332° Northwest 113 130 5,700  Climbing Indianapolis Center
10:31AM 39.3428 -82.7597 15° North 113 130 5,600 -240 Descending Indianapolis Center
10:31AM 39.3661 -82.7547 North 128 147 5,500 -120 Descending Indianapolis Center
10:32AM 39.3769 -82.7528 North 121 139 5,500  Level Indianapolis Center
10:32AM 39.4003 -82.7478 North 122 140 5,500  Level Indianapolis Center
10:33AM 39.4100 -82.7439 17° North 121 139 5,500 60 Level Indianapolis Center
10:33AM 39.4319 -82.7431 North 117 135 5,600 60 Climbing Indianapolis Center
10:34AM 39.4433 -82.7400 12° North 120 138 5,600 -120 Level Indianapolis Center
10:34AM 39.4700 -82.7367 North 120 138 5,500 -120 Descending Indianapolis Center
10:35AM 39.4767 -82.7361 North 119 137 5,500 -120 Level Indianapolis Center
10:35AM 39.4997 -82.7317 North 125 144 5,400 -120 Descending Indianapolis Center
10:36AM 39.5117 -82.7292 North 123 142 5,400 60 Level Indianapolis Center
10:36AM 39.5378 -82.7225 11° North 126 145 5,500 180 Climbing Indianapolis Center
10:37AM 39.5511 -82.7192 11° North 124 143 5,600 180 Climbing Indianapolis Center
10:37AM 39.5697 -82.7178 North 116 133 5,700 60 Climbing Indianapolis Center
10:38AM 39.5828 -82.7167 North 117 135 5,700  Level Indianapolis Center
10:38AM 39.6033 -82.7133 North 116 133 5,700  Level Indianapolis Center
10:39AM 39.6150 -82.7103 11° North 116 133 5,700 -180 Level Indianapolis Center
10:40AM 39.6475 -82.7011 12° North 118 136 5,500 -180 Descending Indianapolis Center
10:41AM 39.6733 -82.6994 North 123 142 5,400  Descending Indianapolis Center
10:41AM 39.6814 -82.6978 North 121 139 5,500 60 Climbing Indianapolis Center
10:41AM 39.7033 -82.6892 17° North 116 133 5,500  Level Indianapolis Center
10:42AM 39.7136 -82.6869 North 118 136 5,500 -120 Level Indianapolis Center
10:42AM 39.7350 -82.6847 North 116 133 5,400 -120 Descending Indianapolis Center
10:43AM 39.7472 -82.6817 11° North 120 138 5,400 60 Level Indianapolis Center
10:44AM 39.7733 -82.6753 11° North 134 154 5,500 60 Climbing Indianapolis Center
10:44AM 39.7781 -82.6725 24° Northeast 116 133 5,500  Level Indianapolis Center
10:45AM 39.8031 -82.6678 North 112 129 5,500  Level Indianapolis Center
10:45AM 39.8106 -82.6661 10° North 116 133 5,500  Level Indianapolis Center
10:46AM 39.8347 -82.6658 North 117 135 5,500  Level Indianapolis Center
10:46AM 39.8497 -82.6600 17° North 120 138 5,500 -120 Level Indianapolis Center
10:47AM 39.8711 -82.6536 13° North 122 140 5,400 -240 Descending Indianapolis Center
10:48AM 39.8983 -82.6511 North 117 135 5,200  Descending Indianapolis Center
10:48AM 39.9147 -82.6472 10° North 118 136 5,400 240 Climbing Indianapolis Center
10:49AM 39.9344 -82.6442 North 105 121 5,500 60 Climbing Indianapolis Center
10:49AM 39.9453 -82.6422 North 112 129 5,500  Level Indianapolis Center
10:50AM 39.9642 -82.6367 13° North 113 130 5,500  Level Indianapolis Center
10:50AM 39.9750 -82.6292 28° Northeast 112 129 5,500  Level Indianapolis Center
10:51AM 39.9942 -82.6236 13° North 119 137 5,500  Level Indianapolis Center
10:51AM 40.0072 -82.6214 North 115 132 5,500  Level Indianapolis Center
10:52AM 40.0258 -82.6217 359° North 115 132 5,500  Level Indianapolis Center
10:52AM 40.0400 -82.6189 North 116 133 5,500  Level Indianapolis Center
10:53AM 40.0619 -82.6147 North 113 130 5,500  Level Indianapolis Center
10:53AM 40.0719 -82.6117 13° North 116 133 5,500 60 Level Indianapolis Center
10:54AM 40.0917 -82.6069 10° North 113 130 5,600 60 Climbing Indianapolis Center
10:54AM 40.1025 -82.6053 North 111 128 5,600 -120 Level Indianapolis Center
10:55AM 40.1231 -82.6078 355° North 112 129 5,500  Descending Indianapolis Center
10:55AM 40.1336 -82.6119 343° North 112 129 5,600 -120 Climbing Indianapolis Center
10:56AM 40.1575 -82.6253 337° Northwest 118 136 5,400 -300 Descending Indianapolis Center
10:56AM 40.1703 -82.6261 357° North 117 135 5,300 60 Descending Indianapolis Center
10:57AM 40.1864 -82.6283 354° North 118 136 5,500 180 Climbing Indianapolis Center
10:57AM 40.2008 -82.6311 352° North 113 130 5,500  Level Indianapolis Center
10:58AM 40.2153 -82.6342 351° North 108 124 5,500 -120 Level Indianapolis Center
10:58AM 40.2319 -82.6283 15° North 111 128 5,400 -540 Descending Indianapolis Center
10:59AM 40.2469 -82.6294 357° North 116 133 5,000 -720 Descending Indianapolis Center
10:59AM 40.2606 -82.6267 North 112 129 4,700 -240 Descending Indianapolis Center
11:01AM 40.2953 -82.6294 357° North 90 104 4,600 -240 Descending Indianapolis Center
11:01AM 40.3183 -82.6281 North 98 113 4,300 -300 Descending Indianapolis Center
11:02AM 40.3489 -82.6292 358° North 105 121 4,100 -300 Descending Indianapolis Center
11:03AM 40.3817 -82.6350 352° North 113 130 3,700 -300 Descending Indianapolis Center
11:04AM 40.4169 -82.6397 354° North 123 142 3,600  Descending Indianapolis Center
11:06AM 40.4519 -82.6442 354° North 125 144 3,800  Climbing Indianapolis Center
11:07AM 40.4853 -82.6450 359° North 121 139 3,700 -60 Descending Indianapolis Center
11:08AM 40.5186 -82.6483 356° North 119 137 3,700 -60 Level Indianapolis Center
11:09AM 40.5506 -82.6506 357° North 116 133 3,600 -120 Descending Indianapolis Center
11:10AM 40.5833 -82.6533 356° North 117 135 3,500  Descending Indianapolis Center
11:11AM 40.6131 -82.6567 355° North 110 127 3,600 60 Climbing Indianapolis Center
11:12AM 40.6447 -82.6619 353° North 111 128 3,700 60 Climbing Indianapolis Center
11:13AM 40.6825 -82.6753 345° North 117 135 3,800  Climbing Indianapolis Center
11:14AM 40.7169 -82.6800 354° North 123 142 3,800  Level Indianapolis Center
11:15AM 40.7506 -82.6856 353° North 122 140 3,800  Level Indianapolis Center